Aérodrome :
LOGIN :

S'inscrire | Disclaimer

   EN    FR    IT 

 










Légende :    VFR   VFR Marginal   IFR   IFR Intensif   IFR Très Intensif
Visi : 
Plafond : 
>= 8 km
>= 3000ft
5 à 8 km
1000 à 3000 ft
1500m à 5 km
500 à 1000 ft
800 à 1500m
200 à 500 ft
< 800m
< 200 ft
Symboles :   Orages  Brouillard  Fortes neiges  Fortes précipitations  Vent > 20 kt
SIGMETs :   Divers  Orages  Givrage  Turbulence  Onde Orograph.  Cendres Volcan.







- Altitude de l'aérodrome : 1197 ft
- Code IATA : SPM


ETAD - Spangdahlem Ab

DERNIER METAR :
  • 251856Z AUTO 22007KT 9999 FEW046 10/05 A2993 RMK AO2 SLP129 T01030051 $

METARs EXPIRÉS :
  • 251756Z AUTO 25008KT 9999 SCT085 12/05 A2990 RMK AO2 SLP117 60000 T01240051 10169 20123 58002 $
  • 251711Z AUTO 26008KT 9999 SCT070 13/06 A2991 RMK AO2 VIS 4400 RWY05/23 SLP120 $
  • 251656Z AUTO 25007KT 9999 FEW026 SCT042 BKN065 13/07 A2991 RMK AO2 VIS 4400 RWY05/23 RAB37E52 SLP120 P0000 T01250065 $

TAF TAF ETAD
Valide du 25 à 19h jusqu'au 27 à 01h UTC


251904Z 2519/2701 25009KT 9999 SCT030 BKN060 610608 QNH2986INS
BECMG 2605/2606 26012KT 9999 BKN020 610608 QNH3000INS
TEMPO 2606/2610 27012G20KT
BECMG 2609/2610 26012G20KT 9999 SCT030 QNH3006INS
BECMG 2616/2617 26009KT 9999 SCT030 QNH3005INS
TEMPO 2617/2621 8000 -RA TX18/2615Z TN08/2603Z
Pas de NOTAMs connus pour ce terrain.



MET'MAP, la Météo Aéronautique d'un coup d'oeil ! - Copyright ORBIFLY Décembre 2007 - Disclaimer

ORBIFLY MET'MAP TEAM :

Programmation & Développement : Alexandra Zaïnal
Conception & Développement : Baudouin d'Aumeries
Co-Programmation & Développement : Marc-Olivier Méhu
Soutien technique & logistique : Manuel Goepfert

Contact : metmap@orbifly.com




SOURCES & CREDITS :

   NOAA